createdAt,value
2019-01-21T00:00:46.013Z,32.67
2019-01-21T00:03:14.923Z,38.80
2019-01-21T00:05:41.463Z,37.20
2019-01-21T00:08:08.922Z,39.07
2019-01-21T00:10:35.381Z,38.23
2019-01-21T00:13:01.718Z,36.87
2019-01-21T00:15:28.137Z,38.80
2019-01-21T00:17:54.496Z,43.73
2019-01-21T00:20:20.963Z,40.23
2019-01-21T00:22:47.383Z,41.20
2019-01-21T00:25:13.753Z,31.07
2019-01-21T00:27:41.287Z,34.87
2019-01-21T00:30:09.967Z,33.93
2019-01-21T00:32:36.407Z,33.60
2019-01-21T00:35:05.023Z,31.50
2019-01-21T00:37:31.399Z,35.20
2019-01-21T00:39:57.865Z,35.37
2019-01-21T00:42:24.272Z,33.67
2019-01-21T00:44:50.841Z,31.73
2019-01-21T00:47:17.561Z,28.60
2019-01-21T00:49:44.056Z,30.93
2019-01-21T00:52:10.529Z,35.17
2019-01-21T00:54:36.897Z,34.23
2019-01-21T00:57:03.427Z,25.00
2019-01-21T00:59:29.764Z,22.77
2019-01-21T01:01:56.230Z,25.77
2019-01-21T01:04:22.656Z,24.57
2019-01-21T01:06:49.182Z,22.97
2019-01-21T01:09:15.656Z,26.33
2019-01-21T01:11:42.084Z,25.07
2019-01-21T01:14:08.561Z,24.13
2019-01-21T01:16:34.966Z,23.70
2019-01-21T01:19:01.437Z,23.30
2019-01-21T01:21:27.874Z,26.53
2019-01-21T01:23:54.426Z,27.80
2019-01-21T01:26:20.917Z,25.60
2019-01-21T01:28:47.307Z,28.43
2019-01-21T01:31:13.811Z,26.43
2019-01-21T01:33:40.230Z,26.40
2019-01-21T01:36:06.740Z,24.20
2019-01-21T01:38:33.161Z,25.10
2019-01-21T01:40:59.685Z,23.83
2019-01-21T01:43:26.212Z,24.67
2019-01-21T01:45:52.593Z,24.23
2019-01-21T01:48:19.055Z,25.70
2019-01-21T01:50:45.445Z,26.20
2019-01-21T01:53:12.103Z,28.80
2019-01-21T01:55:38.598Z,23.70
2019-01-21T01:58:05.047Z,24.30
2019-01-21T02:00:32.597Z,21.00
2019-01-21T02:02:59.087Z,23.30
2019-01-21T02:05:25.667Z,20.00
2019-01-21T02:07:52.225Z,21.90
2019-01-21T02:10:18.704Z,22.03
2019-01-21T02:12:45.392Z,19.00
2019-01-21T02:15:13.849Z,25.73
2019-01-21T02:17:40.247Z,23.10
2019-01-21T02:20:14.830Z,20.43
2019-01-21T02:22:42.864Z,21.97
2019-01-21T02:25:09.933Z,20.83
2019-01-21T02:27:42.936Z,21.73
2019-01-21T02:30:22.099Z,22.57
2019-01-21T02:33:00.636Z,21.83
2019-01-21T02:35:33.683Z,21.33
2019-01-21T02:38:12.250Z,22.73
2019-01-21T02:40:45.212Z,22.07
2019-01-21T02:43:30.840Z,22.73
2019-01-21T02:46:13.552Z,20.73
2019-01-21T02:48:49.531Z,19.40
2019-01-21T02:51:36.711Z,20.63
2019-01-21T02:54:10.009Z,22.50
2019-01-21T02:56:52.155Z,23.07
2019-01-21T02:59:34.045Z,21.47
2019-01-21T03:02:21.076Z,23.17
2019-01-21T03:05:25.501Z,23.00
2019-01-21T03:08:02.119Z,20.97
2019-01-21T03:10:51.470Z,21.57
2019-01-21T03:13:30.676Z,23.07
2019-01-21T03:16:00.931Z,22.53
2019-01-21T03:18:31.536Z,22.67
2019-01-21T03:21:24.843Z,21.60
2019-01-21T03:24:13.497Z,21.57
2019-01-21T03:26:46.650Z,19.77
2019-01-21T03:29:22.992Z,23.57
2019-01-21T03:32:12.483Z,23.27
2019-01-21T03:34:58.116Z,19.87
2019-01-21T03:37:28.342Z,19.80
2019-01-21T03:40:02.121Z,20.93
2019-01-21T03:42:44.576Z,20.80
2019-01-21T03:45:34.463Z,23.50
2019-01-21T03:48:16.433Z,19.87
2019-01-21T03:50:51.112Z,20.37
2019-01-21T03:53:39.618Z,20.00
2019-01-21T03:56:07.924Z,18.93
2019-01-21T03:58:44.349Z,18.87
2019-01-21T04:01:17.380Z,19.20
2019-01-21T04:03:59.703Z,20.80
2019-01-21T04:06:29.913Z,20.43
2019-01-21T04:09:14.785Z,21.63
2019-01-21T04:11:54.710Z,20.57
2019-01-21T04:14:36.923Z,20.73
2019-01-21T04:17:36.473Z,19.50
2019-01-21T04:20:09.709Z,19.97
2019-01-21T04:22:42.697Z,19.97
2019-01-21T04:25:13.062Z,19.53
2019-01-21T04:27:57.829Z,20.03
2019-01-21T04:30:46.569Z,21.13
2019-01-21T04:33:28.645Z,19.97
2019-01-21T04:36:04.952Z,19.33
2019-01-21T04:38:38.161Z,21.03
2019-01-21T04:41:08.380Z,21.20
2019-01-21T04:43:50.109Z,21.07
2019-01-21T04:46:23.135Z,21.93
2019-01-21T04:49:13.342Z,20.93
2019-01-21T04:51:58.618Z,20.67
2019-01-21T04:54:40.664Z,21.13
2019-01-21T04:57:26.621Z,20.90
2019-01-21T05:00:02.782Z,21.73
2019-01-21T05:02:52.648Z,20.43
2019-01-21T05:05:28.929Z,22.30
2019-01-21T05:08:19.320Z,23.30
2019-01-21T05:10:49.601Z,22.13
2019-01-21T05:13:28.865Z,22.77
2019-01-21T05:16:07.793Z,22.10
2019-01-21T05:18:50.046Z,23.10
2019-01-21T05:21:41.835Z,21.23
2019-01-21T05:24:24.048Z,20.93
2019-01-21T05:27:09.313Z,20.00
2019-01-21T05:30:00.920Z,22.93
2019-01-21T05:32:36.928Z,21.90
2019-01-21T05:35:28.518Z,21.13
2019-01-21T05:38:07.433Z,22.77
2019-01-21T05:40:46.763Z,22.00
2019-01-21T05:43:50.578Z,22.47
2019-01-21T05:46:29.950Z,21.90
2019-01-21T05:49:24.592Z,22.93
2019-01-21T05:52:24.199Z,22.33
2019-01-21T05:55:20.611Z,21.40
2019-01-21T05:58:13.444Z,21.50
2019-01-21T06:00:55.779Z,23.40
2019-01-21T06:03:41.352Z,23.83
2019-01-21T06:06:14.222Z,23.50
2019-01-21T06:08:50.422Z,24.70
2019-01-21T06:11:28.983Z,26.53
2019-01-21T06:14:05.274Z,24.47
2019-01-21T06:16:50.669Z,25.07
2019-01-21T06:19:20.851Z,25.07
2019-01-21T06:21:56.649Z,22.30
2019-01-21T06:24:35.205Z,22.73
2019-01-21T06:27:29.267Z,23.20
2019-01-21T06:30:17.942Z,21.53
2019-01-21T06:33:07.420Z,22.23
2019-01-21T06:35:37.642Z,22.07
2019-01-21T06:38:16.817Z,23.83
2019-01-21T06:40:59.125Z,22.50
2019-01-21T06:43:56.678Z,22.17
2019-01-21T06:46:56.093Z,21.33
2019-01-21T06:49:28.900Z,24.10
2019-01-21T06:52:08.109Z,19.77
2019-01-21T06:54:56.011Z,22.50
2019-01-21T06:57:43.833Z,22.43
2019-01-21T07:00:35.476Z,24.53
2019-01-21T07:03:17.586Z,26.93
2019-01-21T07:05:56.531Z,25.90
2019-01-21T07:08:32.589Z,26.17
2019-01-21T07:11:23.561Z,26.37
2019-01-21T07:13:53.863Z,32.77
2019-01-21T07:16:27.889Z,31.40
2019-01-21T07:19:24.325Z,35.97
2019-01-21T07:22:03.466Z,31.33
2019-01-21T07:24:45.549Z,33.83
2019-01-21T07:27:35.659Z,29.17
2019-01-21T07:30:11.521Z,26.23
2019-01-21T07:32:44.476Z,30.50
2019-01-21T07:35:20.433Z,31.63
2019-01-21T07:37:56.730Z,28.43
2019-01-21T07:40:32.916Z,28.03
2019-01-21T07:43:11.963Z,29.47
2019-01-21T07:45:56.979Z,28.30
2019-01-21T07:48:45.263Z,28.60
2019-01-21T07:51:21.684Z,27.57
2019-01-21T07:53:54.819Z,26.63
2019-01-21T07:56:41.880Z,27.87
2019-01-21T07:59:28.746Z,28.17
2019-01-21T08:02:07.933Z,26.17
2019-01-21T08:04:40.952Z,27.60
2019-01-21T08:07:11.145Z,27.00
2019-01-21T08:09:50.549Z,29.03
2019-01-21T08:12:26.867Z,29.83
2019-01-21T08:15:00.409Z,28.83
2019-01-21T08:17:42.324Z,24.33
2019-01-21T08:20:12.511Z,21.43
2019-01-21T08:22:58.381Z,26.63
2019-01-21T08:25:40.677Z,47.07
2019-01-21T08:28:27.448Z,27.63
2019-01-21T08:31:00.884Z,47.03
2019-01-21T08:33:37.359Z,78.83
2019-01-21T08:36:07.668Z,36.30
2019-01-21T08:38:41.637Z,26.20
2019-01-21T08:41:21.645Z,24.80
2019-01-21T08:43:57.992Z,25.57
2019-01-21T08:46:40.177Z,25.80
2019-01-21T08:49:17.160Z,24.47
2019-01-21T08:52:11.193Z,23.47
2019-01-21T08:54:58.350Z,21.63
2019-01-21T08:57:37.608Z,23.23
2019-01-21T09:00:16.252Z,23.60
2019-01-21T09:03:06.509Z,23.03
2019-01-21T09:05:39.711Z,26.30
2019-01-21T09:08:10.081Z,22.70
2019-01-21T09:10:46.009Z,21.87
2019-01-21T09:13:42.426Z,27.03
2019-01-21T09:16:21.616Z,21.57
2019-01-21T09:19:01.054Z,21.40
2019-01-21T09:21:31.533Z,19.40
2019-01-21T09:24:18.495Z,21.07
2019-01-21T09:26:54.343Z,19.70
2019-01-21T09:29:34.075Z,24.13
2019-01-21T09:32:04.678Z,20.50
2019-01-21T09:35:04.408Z,21.47
2019-01-21T09:37:40.817Z,22.03
2019-01-21T09:40:27.319Z,18.67
2019-01-21T09:43:12.794Z,18.70
2019-01-21T09:46:00.083Z,20.47
2019-01-21T09:48:26.733Z,23.50
2019-01-21T09:50:56.210Z,21.73
2019-01-21T09:53:22.780Z,21.10
2019-01-21T09:55:49.979Z,23.03
2019-01-21T09:58:19.327Z,20.57
2019-01-21T10:00:46.226Z,20.40
2019-01-21T10:03:13.751Z,21.40
2019-01-21T10:05:43.340Z,23.73
2019-01-21T10:08:26.100Z,23.50
2019-01-21T10:11:03.331Z,23.07
2019-01-21T10:14:06.244Z,21.47
2019-01-21T10:16:37.379Z,25.03
2019-01-21T10:19:26.240Z,27.70
2019-01-21T10:22:08.836Z,28.60
2019-01-21T10:24:54.573Z,27.33
2019-01-21T10:27:43.821Z,25.83
2019-01-21T10:30:20.663Z,26.87
2019-01-21T10:33:10.079Z,24.57
2019-01-21T10:35:55.453Z,21.53
2019-01-21T10:38:59.523Z,22.10
2019-01-21T10:41:35.660Z,24.10
2019-01-21T10:44:18.511Z,25.73
2019-01-21T10:47:12.595Z,25.27
2019-01-21T10:49:45.743Z,23.13
2019-01-21T10:52:36.912Z,25.07
2019-01-21T10:55:09.851Z,23.93
2019-01-21T10:57:47.124Z,26.87
2019-01-21T11:00:38.425Z,26.60
2019-01-21T11:03:18.072Z,23.33
2019-01-21T11:05:51.339Z,25.40
2019-01-21T11:08:38.139Z,26.30
2019-01-21T11:11:28.891Z,26.17
2019-01-21T11:14:32.815Z,25.93
2019-01-21T11:17:22.180Z,26.63
2019-01-21T11:20:03.761Z,27.03
2019-01-21T11:22:29.904Z,26.87
2019-01-21T11:25:06.265Z,28.77
2019-01-21T11:27:48.083Z,27.03
2019-01-21T11:30:26.941Z,28.60
2019-01-21T11:33:20.168Z,27.87
2019-01-21T11:36:05.386Z,28.47
2019-01-21T11:38:47.603Z,28.50
2019-01-21T11:41:17.759Z,31.80
2019-01-21T11:44:07.813Z,29.13
2019-01-21T11:46:43.472Z,30.90
2019-01-21T11:49:13.705Z,28.50
2019-01-21T11:51:55.981Z,31.77
2019-01-21T11:54:49.278Z,33.53
2019-01-21T11:57:34.953Z,29.57
2019-01-21T12:00:07.782Z,29.90
2019-01-21T12:02:53.045Z,31.43
2019-01-21T12:05:23.464Z,32.53
2019-01-21T12:07:59.635Z,35.40
2019-01-21T12:10:45.193Z,32.10
2019-01-21T12:13:33.422Z,37.20
2019-01-21T12:16:25.251Z,33.67
2019-01-21T12:19:28.943Z,32.33
2019-01-21T12:22:04.864Z,35.03
2019-01-21T12:24:31.457Z,32.37
2019-01-21T12:27:36.280Z,35.40
2019-01-21T12:30:27.652Z,34.97
2019-01-21T12:33:31.778Z,34.17
2019-01-21T12:36:04.806Z,36.63
2019-01-21T12:38:46.893Z,39.80
2019-01-21T12:41:26.484Z,38.17
2019-01-21T12:44:19.107Z,39.93
2019-01-21T12:46:58.587Z,38.17
2019-01-21T12:49:40.502Z,36.80
2019-01-21T12:52:13.609Z,35.17
2019-01-21T12:54:56.614Z,35.90
2019-01-21T12:57:44.658Z,34.70
2019-01-21T13:00:17.766Z,31.33
2019-01-21T13:03:11.837Z,35.07
2019-01-21T13:05:44.899Z,36.20
2019-01-21T13:08:30.077Z,35.53
2019-01-21T13:11:06.532Z,38.33
2019-01-21T13:13:42.767Z,36.77
2019-01-21T13:16:12.983Z,37.07
2019-01-21T13:19:05.954Z,37.63
2019-01-21T13:21:52.862Z,41.47
2019-01-21T13:24:31.893Z,37.77
2019-01-21T13:27:21.975Z,39.10
2019-01-21T13:29:50.783Z,37.70
2019-01-21T13:32:20.981Z,42.00
2019-01-21T13:35:00.462Z,39.33
2019-01-21T13:37:36.576Z,38.47
2019-01-21T13:40:29.976Z,36.53
2019-01-21T13:43:19.936Z,40.40
2019-01-21T13:46:23.711Z,40.07
2019-01-21T13:48:56.906Z,40.37
2019-01-21T13:51:46.926Z,37.30
2019-01-21T13:54:36.682Z,37.83
2019-01-21T13:57:13.312Z,40.07
2019-01-21T13:59:46.653Z,39.80
2019-01-21T14:02:16.930Z,40.30
2019-01-21T14:05:05.284Z,39.87
2019-01-21T14:07:35.718Z,41.43
2019-01-21T14:10:07.253Z,40.20
2019-01-21T14:12:38.513Z,42.07
2019-01-21T14:15:31.662Z,41.43
2019-01-21T14:18:18.729Z,48.03
2019-01-21T14:21:11.886Z,45.50
2019-01-21T14:23:56.918Z,46.57
2019-01-21T14:26:29.951Z,45.67
2019-01-21T14:29:08.880Z,47.60
2019-01-21T14:31:45.226Z,50.03
2019-01-21T14:34:30.593Z,44.43
2019-01-21T14:37:37.264Z,49.93
2019-01-21T14:40:10.445Z,45.27
2019-01-21T14:42:55.593Z,44.50
2019-01-21T14:45:43.422Z,43.60
2019-01-21T14:48:29.088Z,40.33
2019-01-21T14:50:59.506Z,42.20
2019-01-21T14:53:35.886Z,44.07
2019-01-21T14:56:12.236Z,43.70
2019-01-21T14:58:42.457Z,47.20
2019-01-21T15:01:12.796Z,44.43
2019-01-21T15:03:59.628Z,43.60
2019-01-21T15:06:35.770Z,39.30
2019-01-21T15:09:18.212Z,40.27
2019-01-21T15:11:51.202Z,40.53
2019-01-21T15:14:39.825Z,41.03
2019-01-21T15:17:16.073Z,42.17
2019-01-21T15:19:43.260Z,40.47
2019-01-21T15:22:31.700Z,41.33
2019-01-21T15:25:11.134Z,42.53
2019-01-21T15:27:52.806Z,38.70
2019-01-21T15:30:40.996Z,40.27
2019-01-21T15:33:11.518Z,41.57
2019-01-21T15:35:44.579Z,41.80
2019-01-21T15:38:20.970Z,41.83
2019-01-21T15:41:06.032Z,40.80
2019-01-21T15:43:51.477Z,40.10
2019-01-21T15:46:36.838Z,44.57
2019-01-21T15:49:16.144Z,42.87
2019-01-21T15:52:01.226Z,42.97
2019-01-21T15:54:44.668Z,41.90
2019-01-21T15:57:38.694Z,43.03
2019-01-21T16:00:25.565Z,46.00
2019-01-21T16:02:58.757Z,49.33
2019-01-21T16:05:28.964Z,52.30
2019-01-21T16:08:01.867Z,50.77
2019-01-21T16:10:44.351Z,45.37
2019-01-21T16:13:20.701Z,53.40
2019-01-21T16:16:22.950Z,46.33
2019-01-21T16:18:56.171Z,51.13
2019-01-21T16:21:44.412Z,51.70
2019-01-21T16:24:20.872Z,50.30
2019-01-21T16:26:51.090Z,48.10
2019-01-21T16:29:21.336Z,48.20
2019-01-21T16:31:50.840Z,52.73
2019-01-21T16:34:24.031Z,62.03
2019-01-21T16:36:57.287Z,58.00
2019-01-21T16:39:44.424Z,49.23
2019-01-21T16:42:13.659Z,47.67
2019-01-21T16:44:41.353Z,48.80
2019-01-21T16:47:07.706Z,49.03
2019-01-21T16:49:34.521Z,45.87
2019-01-21T16:52:01.331Z,50.27
2019-01-21T16:54:27.837Z,47.63
2019-01-21T16:56:54.474Z,48.47
2019-01-21T16:59:22.085Z,46.63
2019-01-21T17:01:48.645Z,44.80
2019-01-21T17:04:15.096Z,43.93
2019-01-21T17:06:41.556Z,44.47
2019-01-21T17:09:09.935Z,49.10
2019-01-21T17:11:36.757Z,46.97
2019-01-21T17:14:05.329Z,45.73
2019-01-21T17:16:31.704Z,44.40
2019-01-21T17:18:58.231Z,46.83
2019-01-21T17:21:27.039Z,49.30
2019-01-21T17:23:52.857Z,46.63
2019-01-21T17:26:19.221Z,49.63
2019-01-21T17:28:45.753Z,52.00
2019-01-21T17:31:12.114Z,50.17
2019-01-21T17:33:38.595Z,52.73
2019-01-21T17:36:05.378Z,53.00
2019-01-21T17:38:32.410Z,52.23
2019-01-21T17:40:59.542Z,51.57
2019-01-21T17:43:26.008Z,51.67
2019-01-21T17:45:52.711Z,51.47
2019-01-21T17:48:20.052Z,51.57
2019-01-21T17:50:46.624Z,51.10
2019-01-21T17:53:12.998Z,49.73
2019-01-21T17:55:39.399Z,48.33
2019-01-21T17:58:05.921Z,47.73
2019-01-21T18:00:32.383Z,49.47
2019-01-21T18:02:59.838Z,50.60
2019-01-21T18:05:26.690Z,51.77
2019-01-21T18:07:53.428Z,59.00
2019-01-21T18:10:20.982Z,62.90
2019-01-21T18:12:48.654Z,52.83
2019-01-21T18:15:15.201Z,51.50
2019-01-21T18:17:41.661Z,53.77
2019-01-21T18:20:11.525Z,52.53
2019-01-21T18:22:37.950Z,51.53
2019-01-21T18:25:07.179Z,45.33
2019-01-21T18:27:33.514Z,43.63
2019-01-21T18:30:01.800Z,45.17
2019-01-21T18:32:28.909Z,46.70
2019-01-21T18:34:55.373Z,46.03
2019-01-21T18:37:21.777Z,44.00
2019-01-21T18:39:50.225Z,43.23
2019-01-21T18:42:16.559Z,42.27
2019-01-21T18:44:42.990Z,43.47
2019-01-21T18:47:09.399Z,42.17
2019-01-21T18:49:35.943Z,43.30
2019-01-21T18:52:02.368Z,44.10
2019-01-21T18:54:29.015Z,41.33
2019-01-21T18:56:55.515Z,43.00
2019-01-21T18:59:21.941Z,46.97
2019-01-21T19:01:48.362Z,44.37
2019-01-21T19:04:14.764Z,40.93
2019-01-21T19:06:41.156Z,43.53
2019-01-21T19:09:07.642Z,47.57
2019-01-21T19:11:34.491Z,45.43
2019-01-21T19:14:00.958Z,39.13
2019-01-21T19:16:27.408Z,40.17
2019-01-21T19:18:53.781Z,41.80
2019-01-21T19:21:21.503Z,41.17
2019-01-21T19:23:48.062Z,41.37
2019-01-21T19:26:16.356Z,41.80
2019-01-21T19:28:43.380Z,61.50
2019-01-21T19:31:10.991Z,45.00
2019-01-21T19:33:37.635Z,42.70
2019-01-21T19:36:04.193Z,43.63
2019-01-21T19:38:31.240Z,41.93
2019-01-21T19:40:58.646Z,40.97
2019-01-21T19:43:25.543Z,41.33
2019-01-21T19:45:52.204Z,40.97
2019-01-21T19:48:19.443Z,41.73
2019-01-21T19:50:46.883Z,43.70
2019-01-21T19:53:13.350Z,44.30
2019-01-21T19:55:40.887Z,42.63
2019-01-21T19:58:07.954Z,43.77
2019-01-21T20:00:34.749Z,42.10
2019-01-21T20:03:01.243Z,41.10
2019-01-21T20:05:27.666Z,43.60
2019-01-21T20:07:54.330Z,42.63
2019-01-21T20:10:22.627Z,42.13
2019-01-21T20:12:49.493Z,44.23
2019-01-21T20:15:17.356Z,43.43
2019-01-21T20:17:43.934Z,43.30
2019-01-21T20:20:13.813Z,43.13
2019-01-21T20:22:40.261Z,44.60
2019-01-21T20:25:08.842Z,43.30
2019-01-21T20:27:35.280Z,43.03
2019-01-21T20:30:01.800Z,42.80
2019-01-21T20:32:28.403Z,44.40
2019-01-21T20:34:54.816Z,42.87
2019-01-21T20:37:21.221Z,44.33
2019-01-21T20:39:48.360Z,43.83
2019-01-21T20:42:15.551Z,49.10
2019-01-21T20:44:42.432Z,43.73
2019-01-21T20:47:08.879Z,44.13
2019-01-21T20:49:35.711Z,44.13
2019-01-21T20:52:03.436Z,46.57
2019-01-21T20:54:29.992Z,46.53
2019-01-21T20:56:56.456Z,46.20
2019-01-21T20:59:22.815Z,48.20
2019-01-21T21:01:49.255Z,45.97
2019-01-21T21:04:15.697Z,46.10
2019-01-21T21:06:42.436Z,47.80
2019-01-21T21:09:08.957Z,46.00
2019-01-21T21:11:35.757Z,46.03
2019-01-21T21:14:03.144Z,48.93
2019-01-21T21:16:30.723Z,48.20
2019-01-21T21:18:57.301Z,47.03
2019-01-21T21:21:24.331Z,47.23
2019-01-21T21:23:52.104Z,48.80
2019-01-21T21:26:19.742Z,49.50
2019-01-21T21:28:47.360Z,50.77
2019-01-21T21:31:15.415Z,50.17
2019-01-21T21:33:43.144Z,55.23
2019-01-21T21:36:10.732Z,50.83
2019-01-21T21:38:39.823Z,50.57
2019-01-21T21:41:07.454Z,50.90
2019-01-21T21:43:34.679Z,48.33
2019-01-21T21:46:03.129Z,51.30
2019-01-21T21:48:31.828Z,52.63
2019-01-21T21:51:00.522Z,50.13
2019-01-21T21:53:28.018Z,50.47
2019-01-21T21:55:55.436Z,53.50
2019-01-21T21:58:22.762Z,55.03
2019-01-21T22:00:49.469Z,53.50
2019-01-21T22:03:16.159Z,53.47
2019-01-21T22:05:42.750Z,54.00
2019-01-21T22:08:09.352Z,54.70
2019-01-21T22:10:35.915Z,54.77
2019-01-21T22:13:02.907Z,53.43
2019-01-21T22:15:29.480Z,52.47
2019-01-21T22:17:56.547Z,58.77
2019-01-21T22:20:24.598Z,56.50
2019-01-21T22:22:51.100Z,62.90
2019-01-21T22:25:18.003Z,60.40
2019-01-21T22:27:44.358Z,59.47
2019-01-21T22:30:19.006Z,63.00
2019-01-21T22:32:45.407Z,63.03
2019-01-21T22:35:11.997Z,63.30
2019-01-21T22:37:38.430Z,65.07
2019-01-21T22:40:11.422Z,61.87
2019-01-21T22:42:38.314Z,63.83
2019-01-21T22:45:07.212Z,64.30
2019-01-21T22:47:34.763Z,65.03
2019-01-21T22:50:02.103Z,63.30
2019-01-21T22:52:30.180Z,63.00
2019-01-21T22:54:57.198Z,63.20
2019-01-21T22:57:24.652Z,69.23
2019-01-21T22:59:53.069Z,65.60
2019-01-21T23:02:20.752Z,65.57
2019-01-21T23:04:48.318Z,66.00
2019-01-21T23:07:15.974Z,66.63
2019-01-21T23:09:42.899Z,66.50
2019-01-21T23:12:10.192Z,69.53
2019-01-21T23:14:37.510Z,66.53
2019-01-21T23:17:06.851Z,66.37
2019-01-21T23:19:33.884Z,67.53
2019-01-21T23:22:00.697Z,67.37
2019-01-21T23:24:27.023Z,69.10
2019-01-21T23:26:53.523Z,71.20
2019-01-21T23:29:20.811Z,69.20
2019-01-21T23:31:48.643Z,68.67
2019-01-21T23:34:15.824Z,66.67
2019-01-21T23:36:42.831Z,73.07
2019-01-21T23:39:09.269Z,70.83
2019-01-21T23:41:35.774Z,72.70
2019-01-21T23:44:02.161Z,70.43
2019-01-21T23:46:28.514Z,69.17
2019-01-21T23:48:54.907Z,71.40
2019-01-21T23:51:21.246Z,71.17
2019-01-21T23:53:47.931Z,73.43
2019-01-21T23:56:14.344Z,70.00
2019-01-21T23:58:40.710Z,73.67
